Presidente Prudente Airport

SBDN · São Paulo, 巴西

METAR的历史 SBDN · Presidente Prudente Airport

下面你可以看到过去几天的METARs。 选择年份以浏览从2007年开始的旧METAR。

2024年5月28日

时间 代码 天气 温度 能见度 天花板 METAR/SPECI
22:00
V
9 °C 10 km+ - 220° 220° 2 kt METAR SBDN 290100Z 22002KT CAVOK 09/06 Q1022
21:00
V
10 °C 10 km+ - 220° 220° 3 kt METAR SBDN 290000Z 22003KT CAVOK 10/06 Q1022
20:00
V
10 °C 10 km+ - 210° 210° 5 kt METAR SBDN 282300Z 21005KT CAVOK 10/06 Q1022
19:00
V
11 °C 10 km+ - 200° 200° 6 kt METAR SBDN 282200Z 20006KT CAVOK 11/06 Q1022
18:00
V
13 °C 10 km+ - 230° 230° 6 kt METAR SBDN 282100Z 23006KT CAVOK 13/07 Q1022
15:00
V
17 °C 10 km+ - 250° 250° 11 kt METAR SBDN 281800Z 25011KT 9999 FEW030 17/08 Q1021
14:00
V
16 °C 10 km+ - 210° 210° 10 kt METAR SBDN 281700Z 21010KT 9999 SCT030 16/08 Q1022
13:00
M
16 °C 10 km+ 2.300 ft 230° 230° 7 kt METAR SBDN 281600Z 23007KT 9999 BKN023 16/08 Q1023
12:00
M
15 °C 10 km+ 2.000 ft 240° 240° 8 kt METAR SBDN 281500Z 24008KT 9999 OVC020 15/08 Q1024
11:00
M
14 °C 10 km+ 1.700 ft 240° 240° 7 kt METAR SBDN 281400Z 24007KT 9999 BKN017 14/09 Q1024
10:00
M
13 °C 10 km+ 2.500 ft 220° 220° 7 kt METAR SBDN 281300Z 22007KT 9999 SCT019 BKN025 13/08 Q1024
09:00
M
13 °C 10 km+ 2.500 ft 210° 210° 9 kt METAR SBDN 281200Z 21009KT 9999 FEW018 BKN025 13/08 Q1024
08:00
V
12 °C 10 km+ 4.000 ft 220° 220° 6 kt METAR SBDN 281100Z 22006KT 9999 FEW015 BKN040 12/08 Q1023
07:00
M
12 °C 10 km+ 1.400 ft 220° 220° 9 kt METAR SBDN 281000Z 22009KT 9999 OVC014 12/08 Q1022
06:00
M
12 °C 10 km+ 1.200 ft 230° 230° 8 kt METAR SBDN 280900Z 23008KT 9999 OVC012 12/09 Q1022
05:00
M
12 °C 10 km+ 1.000 ft 220° 220° 9 kt METAR SBDN 280800Z 22009KT 9999 FEW006 BKN010 BKN013 12/09 Q1021
04:00
I
12 °C 10 km+ 600 ft 230° 230° 6 kt METAR SBDN 280700Z 23006KT 9999 BKN006 BKN013 12/10 Q1021
03:00
I
12 °C 10 km+ 800 ft 230° 230° 5 kt METAR SBDN 280600Z 23005KT 9999 OVC008 12/10 Q1021
02:00
I
12 °C 10 km+ 800 ft 230° 230° 8 kt METAR SBDN 280500Z 23008KT 9999 OVC008 12/10 Q1021
01:00
I
12 °C 10 km+ 800 ft 220° 220° 10 kt METAR SBDN 280400Z 22010KT 9999 BKN008 OVC030 12/10 Q1021
00:00
I
13 °C 10 km+ 500 ft 230° 230° 7 kt METAR SBDN 280300Z 23007KT 9999 BKN005 OVC035 13/10 Q1022

2024年5月27日

时间 代码 天气 温度 能见度 天花板 METAR/SPECI
23:00
I
13 °C 10 km+ 500 ft 230° 230° 11 kt METAR SBDN 280200Z 23011KT 9999 OVC005 13/11 Q1022
22:00
I
13 °C 10 km+ 600 ft 230° 230° 7 kt METAR SBDN 280100Z 23007KT 9999 BKN006 OVC010 13/11 Q1022
21:00
I
14 °C 10 km+ 800 ft 230° 230° 9 kt METAR SBDN 280000Z 23009KT 9999 SCT003 OVC008 14/12 Q1022
20:00
L
15 °C 5 km 200 ft 240° 240° 9 kt METAR SBDN 272300Z 24009KT 5000 BR BKN002 OVC005 15/13 Q1021
19:00
I
16 °C 10 km+ 800 ft 240° 240° 10 kt METAR SBDN 272200Z 24010KT 9999 OVC008 16/13 Q1020
18:00
L
16 °C 10 km+ 400 ft 250° 250° 5 kt METAR SBDN 272100Z 25005KT 9999 4000E BKN004 OVC007 16/14 Q1020
17:00
L
17 °C 1,6 km 300 ft 240° 240° 11 kt METAR SBDN 272000Z 24011KT 1600 -DZ OVC003 17/15 Q1020
16:00
L
18 °C 1,5 km 200 ft 260° 260° 7 kt METAR SBDN 271900Z 26007KT 1500 -DZ OVC002 18/17 Q1019
15:00
I
19 °C 3 km 700 ft 260° 260° 9 kt METAR SBDN 271800Z 26009KT 3000 BR OVC007 19/17 Q1019
14:00
I
20 °C 10 km+ 700 ft 290° 290° 8 kt METAR SBDN 271700Z 29008KT 9999 OVC007 20/17 Q1019
13:00
I
20 °C 10 km+ 900 ft 360° 360° 0 kt METAR SBDN 271600Z 00000KT 9999 OVC009 20/17 Q1020
12:00
I
20 °C 10 km+ 900 ft 280° 280° 6 kt METAR SBDN 271500Z 28006KT 9999 OVC009 20/17 Q1021
11:00
I
19 °C 10 km+ 900 ft 360° 360° 4 kt METAR SBDN 271400Z 36004KT 9999 OVC009 19/17 Q1021
10:00
I
19 °C 10 km+ 900 ft 050° 050° 5 kt METAR SBDN 271300Z 05005KT 9999 OVC009 19/16 Q1021
09:00
M
18 °C 10 km+ 1.000 ft 080° 080° 3 kt METAR SBDN 271200Z 08003KT 9999 OVC010 18/16 Q1021
08:00
M
17 °C 10 km+ 1.100 ft 100° 100° 3 kt METAR SBDN 271100Z 10003KT 9999 OVC011 17/15 Q1020
07:00
V
17 °C 10 km+ - 070° 070° 5 kt METAR SBDN 271000Z 07005KT 9999 SCT013 17/15 Q1019
06:00
M
17 °C 10 km+ 1.500 ft 090° 090° 3 kt METAR SBDN 270900Z 09003KT 9999 SCT007 OVC015 17/15 Q1019
05:00
M
17 °C 10 km+ 1.700 ft 110° 110° 3 kt METAR SBDN 270800Z 11003KT 9999 SCT007 OVC017 17/15 Q1019
04:00
M
17 °C 10 km+ 1.900 ft 100° 100° 3 kt METAR SBDN 270700Z 10003KT 9999 SCT007 OVC019 17/15 Q1019
03:00
M
17 °C 10 km+ 2.000 ft 090° 090° 7 kt METAR SBDN 270600Z 09007KT 9999 FEW009 OVC020 17/15 Q1018
02:00
M
17 °C 10 km+ 1.400 ft 110° 110° 6 kt METAR SBDN 270500Z 11006KT 9999 FEW004 BKN014 OVC017 17/15 Q1019
01:00
M
17 °C 10 km+ 1.100 ft 130° 130° 6 kt METAR SBDN 270400Z 13006KT 9999 FEW004 OVC011 17/15 Q1020
00:00
M
17 °C 10 km+ 1.400 ft 140° 140° 4 kt METAR SBDN 270300Z 14004KT 9999 SCT008 OVC014 17/15 Q1020

2024年5月26日

时间 代码 天气 温度 能见度 天花板 METAR/SPECI
23:00
M
17 °C 6 km 1.000 ft 150° 150° 4 kt METAR SBDN 270200Z 15004KT 6000 -RA SCT005 BKN010 17/15 Q1020 RERA
22:00
M
17 °C 10 km+ 2.000 ft 100° 100° 8 kt METAR SBDN 270100Z 10008KT 9999 SCT008 BKN020 17/15 Q1020
21:00
I
17 °C 10 km+ 700 ft 110° 110° 8 kt METAR SBDN 270000Z 11008KT 9999 OVC007 17/15 Q1020
20:00
I
17 °C 10 km+ 600 ft 120° 120° 7 kt METAR SBDN 262300Z 12007KT 9999 OVC006 17/15 Q1020
19:00
I
17 °C 10 km+ 800 ft 120° 120° 7 kt METAR SBDN 262200Z 12007KT 9999 -RA OVC008 17/15 Q1019
18:00
L
17 °C 5 km 400 ft 150° 150° 4 kt METAR SBDN 262100Z 15004KT 5000 BR SCT002 OVC004 17/16 Q1019
17:00
L
17 °C 1,5 km 200 ft 240° 240° 3 kt METAR SBDN 262000Z 24003KT 1500 BR PRFG OVC002 17/16 Q1019
16:00
L
17 °C 2 km 200 ft 260° 260° 4 kt METAR SBDN 261900Z 26004KT 2000 -RA BR BKN002 BKN006 17/15 Q1019
15:00
L
17 °C 3 km 400 ft 260° 260° 3 kt METAR SBDN 261800Z 26003KT 3000 -RA BR BKN004 OVC006 17/16 Q1019
14:00
L
18 °C 4 km 400 ft 260° 260° 2 kt METAR SBDN 261700Z 26002KT 4000 BR BKN004 OVC006 18/16 Q1020
13:00
L
16 °C 1,5 km 200 ft 280° 280° 3 kt METAR SBDN 261600Z 28003KT 1500 -DZ BKN002 OVC006 16/15 Q1021
12:00
L
16 °C 2 km 300 ft 260° 260° 5 kt METAR SBDN 261500Z 26005KT 2000 -RA BKN003 BKN006 OVC020 16/15 Q1022
11:00
I
17 °C 8 km 600 ft 240° 240° 2 kt METAR SBDN 261400Z 24002KT 8000 BKN006 OVC009 17/15 Q1022
10:00
L
17 °C 5 km 400 ft 150° 150° 31 kt METAR SBDN 261300Z 15031KT 5000 BR BKN004 OVC009 17/15 Q1021
09:00
L
16 °C 5 km 400 ft 190° 190° 2 kt METAR SBDN 261200Z 19002KT 5000 BR OVC004 16/14 Q1021
08:00
L
15 °C 3 km 300 ft 180° 180° 2 kt METAR SBDN 261100Z 18002KT 3000 BR BKN003 OVC010 15/13 Q1021
07:00
L
15 °C 2 km 300 ft 230° 230° 3 kt METAR SBDN 261000Z 23003KT 2000 -RA BKN003 OVC040 15/13 Q1021
06:00
L
14 °C 10 km+ 300 ft 210° 210° 3 kt METAR SBDN 260900Z 21003KT 9999 -RA BKN003 OVC040 14/13 Q1020
05:00
L
14 °C 10 km+ 400 ft 160° 160° 2 kt METAR SBDN 260800Z 16002KT 9999 -RA BKN004 OVC040 14/13 Q1019 RETS
04:00
L
14 °C 10 km+ 300 ft 170° 170° 4 kt METAR SBDN 260700Z 17004KT 9999 -TSRA OVC003 //////CB 14/13 Q1020
03:00
L
14 °C 10 km+ 400 ft 230° 230° 5 kt METAR SBDN 260600Z 23005KT 9999 BKN004 OVC040 14/13 Q1020
报告变更